createdAt,value
2018-06-01T00:00:57.862Z,18.88
2018-06-01T00:03:23.712Z,18.67
2018-06-01T00:05:49.492Z,18.64
2018-06-01T00:08:15.301Z,18.66
2018-06-01T00:10:41.920Z,18.47
2018-06-01T00:13:07.713Z,18.60
2018-06-01T00:15:33.509Z,18.62
2018-06-01T00:17:59.322Z,18.47
2018-06-01T00:20:25.491Z,18.45
2018-06-01T00:22:51.289Z,18.39
2018-06-01T00:25:17.101Z,18.30
2018-06-01T00:27:42.901Z,18.47
2018-06-01T00:30:08.713Z,18.31
2018-06-01T00:32:34.495Z,18.20
2018-06-01T00:35:00.306Z,18.26
2018-06-01T00:37:26.130Z,18.25
2018-06-01T00:39:51.935Z,18.18
2018-06-01T00:42:17.866Z,18.26
2018-06-01T00:44:43.653Z,18.15
2018-06-01T00:47:09.450Z,18.12
2018-06-01T00:49:35.275Z,18.19
2018-06-01T00:52:01.095Z,18.14
2018-06-01T00:54:26.902Z,18.13
2018-06-01T00:56:52.693Z,18.05
2018-06-01T00:59:18.510Z,18.05
2018-06-01T01:01:44.308Z,17.93
2018-06-01T01:04:10.330Z,18.00
2018-06-01T01:06:36.150Z,18.11
2018-06-01T01:09:02.637Z,18.04
2018-06-01T01:11:28.429Z,18.11
2018-06-01T01:13:54.411Z,18.03
2018-06-01T01:16:20.198Z,17.96
2018-06-01T01:18:45.985Z,17.95
2018-06-01T01:21:11.887Z,17.96
2018-06-01T01:23:38.709Z,17.94
2018-06-01T01:26:05.978Z,18.08
2018-06-01T01:28:32.461Z,18.01
2018-06-01T01:30:59.648Z,18.09
2018-06-01T01:33:26.389Z,17.91
2018-06-01T01:35:53.434Z,17.91
2018-06-01T01:38:21.504Z,17.83
2018-06-01T01:40:54.162Z,17.89
2018-06-01T01:43:21.132Z,17.94
2018-06-01T01:45:48.434Z,17.77
2018-06-01T01:48:14.248Z,17.72
2018-06-01T01:50:40.053Z,17.63
2018-06-01T01:53:05.844Z,17.66
2018-06-01T01:55:31.647Z,17.75
2018-06-01T01:57:57.440Z,17.61
2018-06-01T02:00:23.239Z,17.68
2018-06-01T02:02:49.037Z,17.61
2018-06-01T02:05:14.846Z,17.45
2018-06-01T02:07:40.645Z,17.41
2018-06-01T02:10:06.474Z,17.46
2018-06-01T02:12:32.270Z,17.34
2018-06-01T02:14:58.093Z,17.35
2018-06-01T02:17:23.903Z,17.34
2018-06-01T02:19:49.693Z,17.29
2018-06-01T02:22:15.486Z,17.20
2018-06-01T02:24:41.277Z,17.30
2018-06-01T02:27:07.084Z,17.27
2018-06-01T02:29:32.877Z,17.19
2018-06-01T02:31:58.667Z,17.21
2018-06-01T02:34:24.474Z,17.20
2018-06-01T02:36:50.263Z,17.00
2018-06-01T02:39:16.103Z,17.02
2018-06-01T02:41:41.885Z,16.95
2018-06-01T02:44:07.702Z,17.22
2018-06-01T02:46:33.494Z,17.18
2018-06-01T02:48:59.288Z,17.16
2018-06-01T02:51:25.086Z,17.28
2018-06-01T02:53:50.904Z,17.27
2018-06-01T02:56:16.701Z,17.22
2018-06-01T02:58:42.487Z,17.21
2018-06-01T03:01:08.294Z,17.16
2018-06-01T03:03:34.073Z,16.96
2018-06-01T03:05:59.867Z,16.99
2018-06-01T03:08:25.685Z,17.10
2018-06-01T03:10:51.606Z,17.11
2018-06-01T03:13:17.414Z,17.05
2018-06-01T03:15:43.211Z,17.15
2018-06-01T03:18:08.999Z,17.10
2018-06-01T03:20:34.787Z,16.91
2018-06-01T03:23:00.607Z,16.90
2018-06-01T03:25:26.405Z,16.85
2018-06-01T03:27:52.180Z,16.82
2018-06-01T03:30:18.020Z,16.79
2018-06-01T03:32:43.815Z,16.83
2018-06-01T03:35:09.609Z,16.78
2018-06-01T03:37:35.399Z,16.95
2018-06-01T03:40:01.227Z,17.00
2018-06-01T03:42:27.050Z,17.00
2018-06-01T03:44:52.845Z,16.82
2018-06-01T03:47:18.636Z,16.99
2018-06-01T03:49:44.437Z,16.87
2018-06-01T03:52:10.221Z,16.96
2018-06-01T03:54:36.010Z,17.01
2018-06-01T03:57:01.846Z,16.90
2018-06-01T03:59:27.649Z,16.91
2018-06-01T04:01:53.537Z,16.91
2018-06-01T04:04:19.385Z,16.82
2018-06-01T04:06:45.183Z,16.97
2018-06-01T04:09:10.994Z,17.03
2018-06-01T04:11:36.794Z,17.15
2018-06-01T04:14:02.802Z,17.13
2018-06-01T04:16:28.853Z,16.92
2018-06-01T04:18:54.654Z,17.03
2018-06-01T04:21:20.446Z,17.11
2018-06-01T04:23:46.254Z,17.26
2018-06-01T04:26:12.029Z,17.17
2018-06-01T04:28:37.843Z,17.11
2018-06-01T04:31:03.734Z,17.24
2018-06-01T04:33:29.530Z,17.24
2018-06-01T04:35:55.340Z,17.21
2018-06-01T04:38:21.114Z,17.24
2018-06-01T04:40:46.909Z,17.26
2018-06-01T04:43:12.729Z,17.14
2018-06-01T04:45:38.521Z,17.22
2018-06-01T04:48:04.336Z,17.28
2018-06-01T04:50:30.142Z,17.46
2018-06-01T04:52:55.961Z,17.33
2018-06-01T04:55:21.753Z,17.33
2018-06-01T04:57:47.549Z,17.46
2018-06-01T05:00:13.541Z,17.62
2018-06-01T05:02:39.330Z,17.58
2018-06-01T05:05:05.139Z,17.74
2018-06-01T05:07:30.935Z,17.65
2018-06-01T05:09:56.726Z,17.69
2018-06-01T05:12:22.514Z,17.92
2018-06-01T05:14:48.356Z,17.94
2018-06-01T05:17:14.138Z,17.92
2018-06-01T05:19:44.985Z,17.78
2018-06-01T05:22:11.049Z,18.00
2018-06-01T05:24:36.818Z,18.06
2018-06-01T05:27:02.652Z,18.06
2018-06-01T05:29:28.487Z,18.07
2018-06-01T05:31:54.270Z,18.21
2018-06-01T05:34:20.066Z,18.27
2018-06-01T05:36:45.870Z,18.27
2018-06-01T05:39:12.521Z,18.26
2018-06-01T05:41:38.318Z,18.36
2018-06-01T05:44:04.421Z,18.34
2018-06-01T05:46:30.216Z,18.42
2018-06-01T05:48:56.013Z,18.40
2018-06-01T05:51:21.833Z,18.62
2018-06-01T05:53:54.462Z,18.78
2018-06-01T05:56:20.287Z,18.72
2018-06-01T05:58:46.099Z,18.80
2018-06-01T06:01:11.885Z,18.92
2018-06-01T06:03:37.669Z,18.96
2018-06-01T06:06:03.852Z,18.98
2018-06-01T06:08:29.637Z,19.18
2018-06-01T06:10:55.417Z,19.20
2018-06-01T06:13:21.311Z,19.27
2018-06-01T06:15:47.067Z,19.30
2018-06-01T06:18:12.868Z,19.31
2018-06-01T06:20:38.684Z,19.46
2018-06-01T06:23:04.505Z,19.48
2018-06-01T06:25:30.286Z,19.48
2018-06-01T06:27:56.094Z,19.62
2018-06-01T06:30:21.886Z,19.80
2018-06-01T06:32:47.680Z,19.74
2018-06-01T06:35:13.481Z,19.81
2018-06-01T06:37:39.634Z,19.90
2018-06-01T06:40:05.386Z,19.93
2018-06-01T06:42:31.180Z,20.00
2018-06-01T06:44:56.974Z,20.11
2018-06-01T06:47:22.787Z,20.13
2018-06-01T06:49:48.610Z,20.21
2018-06-01T06:52:14.501Z,20.34
2018-06-01T06:54:40.322Z,20.23
2018-06-01T06:57:06.114Z,20.35
2018-06-01T06:59:31.911Z,20.48
2018-06-01T07:01:58.381Z,20.58
2018-06-01T07:04:24.188Z,20.63
2018-06-01T07:06:49.974Z,20.66
2018-06-01T07:09:17.166Z,20.78
2018-06-01T07:11:42.974Z,20.94
2018-06-01T07:14:09.542Z,21.04
2018-06-01T07:16:35.373Z,21.04
2018-06-01T07:19:01.172Z,21.03
2018-06-01T07:21:27.596Z,21.11
2018-06-01T07:23:53.429Z,21.25
2018-06-01T07:26:19.221Z,21.29
2018-06-01T07:28:45.023Z,21.41
2018-06-01T07:31:10.833Z,21.52
2018-06-01T07:33:36.621Z,21.60
2018-06-01T07:36:02.448Z,21.70
2018-06-01T07:38:28.346Z,21.75
2018-06-01T07:40:54.134Z,21.84
2018-06-01T07:43:19.905Z,21.89
2018-06-01T07:45:45.726Z,21.97
2018-06-01T07:48:11.514Z,22.09
2018-06-01T07:50:37.313Z,22.18
2018-06-01T07:53:03.484Z,22.27
2018-06-01T07:55:29.265Z,22.27
2018-06-01T07:57:55.066Z,22.31
2018-06-01T08:00:20.858Z,22.40
2018-06-01T08:02:46.633Z,22.45
2018-06-01T08:05:12.577Z,22.58
2018-06-01T08:07:38.381Z,22.71
2018-06-01T08:10:04.200Z,22.83
2018-06-01T08:12:30.006Z,22.87
2018-06-01T08:14:55.799Z,22.97
2018-06-01T08:17:21.601Z,23.10
2018-06-01T08:19:47.398Z,23.19
2018-06-01T08:22:13.190Z,23.24
2018-06-01T08:24:38.969Z,23.32
2018-06-01T08:27:05.061Z,23.29
2018-06-01T08:29:30.843Z,23.44
2018-06-01T08:31:56.645Z,23.45
2018-06-01T08:34:22.441Z,23.48
2018-06-01T08:36:48.225Z,23.64
2018-06-01T08:39:14.029Z,23.72
2018-06-01T08:41:39.853Z,23.76
2018-06-01T08:44:05.665Z,23.88
2018-06-01T08:46:31.515Z,23.96
2018-06-01T08:48:57.301Z,23.99
2018-06-01T08:51:23.105Z,24.10
2018-06-01T08:53:48.916Z,24.12
2018-06-01T08:56:14.717Z,24.24
2018-06-01T08:58:40.983Z,24.20
2018-06-01T09:01:06.786Z,24.26
2018-06-01T09:03:32.578Z,24.40
2018-06-01T09:05:58.357Z,24.45
2018-06-01T09:08:24.432Z,24.55
2018-06-01T09:10:50.230Z,24.51
2018-06-01T09:13:16.018Z,24.69
2018-06-01T09:15:41.818Z,24.96
2018-06-01T09:18:07.624Z,25.05
2018-06-01T09:20:33.443Z,24.95
2018-06-01T09:22:59.262Z,25.05
2018-06-01T09:25:25.050Z,25.06
2018-06-01T09:27:50.839Z,25.26
2018-06-01T09:30:16.644Z,25.40
2018-06-01T10:09:40.289Z,26.85
2018-06-01T10:12:06.098Z,26.98
2018-06-01T10:14:31.902Z,27.14
2018-06-01T10:16:57.870Z,27.00
2018-06-01T10:19:23.657Z,27.07
2018-06-01T10:21:49.458Z,27.27
2018-06-01T10:24:15.285Z,27.44
2018-06-01T10:26:41.106Z,27.45
2018-06-01T10:29:06.892Z,27.48
2018-06-01T10:31:32.715Z,27.45
2018-06-01T10:33:58.527Z,27.40
2018-06-01T10:36:24.326Z,27.38
2018-06-01T10:38:50.139Z,27.34
2018-06-01T10:41:16.425Z,27.59
2018-06-01T10:43:42.205Z,27.88
2018-06-01T10:46:08.022Z,27.85
2018-06-01T10:48:33.803Z,27.89
2018-06-01T10:50:59.589Z,28.12
2018-06-01T10:53:25.409Z,28.11
2018-06-01T10:55:51.337Z,28.01
2018-06-01T10:58:17.177Z,27.98
2018-06-01T11:00:42.986Z,28.13
2018-06-01T11:03:08.777Z,27.97
2018-06-01T11:05:34.571Z,27.94
2018-06-01T11:08:00.437Z,28.09
2018-06-01T11:10:26.223Z,27.94
2018-06-01T11:12:52.333Z,28.18
2018-06-01T11:15:18.170Z,28.46
2018-06-01T11:17:43.962Z,28.41
2018-06-01T11:20:09.774Z,28.32
2018-06-01T11:22:35.765Z,28.44
2018-06-01T11:25:01.589Z,28.41
2018-06-01T11:27:27.478Z,28.57
2018-06-01T11:29:53.263Z,28.66
2018-06-01T11:32:19.249Z,28.69
2018-06-01T11:34:45.057Z,28.55
2018-06-01T11:37:10.855Z,28.56
2018-06-01T11:39:36.677Z,28.65
2018-06-01T11:42:02.495Z,28.74
2018-06-01T11:44:28.273Z,28.78
2018-06-01T11:46:54.088Z,28.97
2018-06-01T11:49:19.877Z,29.06
2018-06-01T11:51:45.661Z,28.94
2018-06-01T11:54:11.543Z,28.94
2018-06-01T11:56:37.335Z,28.99
2018-06-01T11:59:03.124Z,29.34
2018-06-01T12:01:28.945Z,29.34
2018-06-01T12:03:54.745Z,29.40
2018-06-01T12:06:20.527Z,29.52
2018-06-01T12:08:46.637Z,29.79
2018-06-01T12:11:12.467Z,29.86
2018-06-01T12:13:38.213Z,30.00
2018-06-01T12:16:04.023Z,30.29
2018-06-01T12:18:29.827Z,30.63
2018-06-01T12:20:55.864Z,30.63
2018-06-01T12:23:21.650Z,30.57
2018-06-01T12:25:47.437Z,30.47
2018-06-01T12:28:13.253Z,30.97
2018-06-01T12:30:39.081Z,31.05
2018-06-01T12:33:04.914Z,30.86
2018-06-01T12:35:30.705Z,30.76
2018-06-01T12:37:56.489Z,30.97
2018-06-01T12:40:22.481Z,30.95
2018-06-01T12:42:48.326Z,31.32
2018-06-01T12:45:14.114Z,31.41
2018-06-01T12:47:39.918Z,31.64
2018-06-01T12:50:05.719Z,31.50
2018-06-01T12:52:31.524Z,31.83
2018-06-01T12:54:57.314Z,32.10
2018-06-01T12:57:23.091Z,32.16
2018-06-01T12:59:48.885Z,31.45
2018-06-01T13:02:14.686Z,31.95
2018-06-01T13:04:40.524Z,32.47
2018-06-01T13:07:06.313Z,31.88
2018-06-01T13:09:32.114Z,32.34
2018-06-01T13:11:57.927Z,32.46
2018-06-01T13:14:23.734Z,32.55
2018-06-01T13:16:49.513Z,32.58
2018-06-01T13:19:15.325Z,32.83
2018-06-01T13:21:41.119Z,32.51
2018-06-01T13:24:06.946Z,32.82
2018-06-01T13:26:33.157Z,32.51
2018-06-01T13:28:58.948Z,32.81
2018-06-01T13:31:24.737Z,32.78
2018-06-01T13:33:50.561Z,32.63
2018-06-01T13:36:16.366Z,33.28
2018-06-01T13:38:42.155Z,33.15
2018-06-01T13:41:07.967Z,33.24
2018-06-01T13:43:33.796Z,33.16
2018-06-01T13:45:59.605Z,32.94
2018-06-01T13:48:25.453Z,33.15
2018-06-01T13:50:51.258Z,32.83
2018-06-01T13:53:17.065Z,32.92
2018-06-01T13:55:42.873Z,32.70
2018-06-01T13:58:08.682Z,32.81
2018-06-01T14:00:34.515Z,33.60
2018-06-01T14:03:00.301Z,32.84
2018-06-01T14:05:26.171Z,32.96
2018-06-01T14:07:51.969Z,33.44
2018-06-01T14:10:17.794Z,33.00
2018-06-01T14:12:43.632Z,33.13
2018-06-01T14:15:09.413Z,32.92
2018-06-01T14:17:35.208Z,32.78
2018-06-01T14:20:01.004Z,33.02
2018-06-01T14:22:26.793Z,32.76
2018-06-01T14:24:52.607Z,32.62
2018-06-01T14:27:18.409Z,32.35
2018-06-01T14:29:44.234Z,32.05
2018-06-01T14:32:10.014Z,32.32
2018-06-01T14:34:35.801Z,32.34
2018-06-01T14:37:01.628Z,32.56
2018-06-01T14:39:27.421Z,32.17
2018-06-01T14:41:53.261Z,32.49
2018-06-01T14:44:19.446Z,32.25
2018-06-01T14:46:45.245Z,32.32
2018-06-01T14:49:11.029Z,31.92
2018-06-01T14:51:36.853Z,31.50
2018-06-01T14:54:02.645Z,31.04
2018-06-01T14:56:28.433Z,31.04
2018-06-01T14:58:54.242Z,30.30
2018-06-01T15:01:20.066Z,30.21
2018-06-01T15:03:45.859Z,30.06
2018-06-01T15:06:11.693Z,30.11
2018-06-01T15:08:37.474Z,30.03
2018-06-01T15:11:03.271Z,29.79
2018-06-01T15:13:29.194Z,29.53
2018-06-01T15:15:54.988Z,29.47
2018-06-01T15:18:20.782Z,29.57
2018-06-01T15:20:46.753Z,29.43
2018-06-01T15:23:12.554Z,29.51
2018-06-01T15:25:38.381Z,29.42
2018-06-01T15:28:04.203Z,29.17
2018-06-01T15:30:30.002Z,29.22
2018-06-01T15:32:55.821Z,29.20
2018-06-01T15:35:21.815Z,29.25
2018-06-01T15:37:47.629Z,29.13
2018-06-01T15:40:13.424Z,29.29
2018-06-01T15:42:39.314Z,29.14
2018-06-01T15:45:05.111Z,29.05
2018-06-01T15:47:30.920Z,29.10
2018-06-01T15:49:56.734Z,29.07
2018-06-01T15:52:22.541Z,29.10
2018-06-01T15:54:48.354Z,29.44
2018-06-01T15:57:14.197Z,29.26
2018-06-01T15:59:40.001Z,29.04
2018-06-01T16:02:05.829Z,29.27
2018-06-01T16:04:31.624Z,29.41
2018-06-01T16:06:57.426Z,29.31
2018-06-01T16:09:23.242Z,29.13
2018-06-01T16:11:49.058Z,28.98
2018-06-01T16:14:14.874Z,28.79
2018-06-01T16:16:40.680Z,28.80
2018-06-01T16:19:06.454Z,28.73
2018-06-01T16:21:32.263Z,28.64
2018-06-01T16:23:58.055Z,28.62
2018-06-01T16:26:23.854Z,28.41
2018-06-01T16:28:49.652Z,28.30
2018-06-01T16:31:15.446Z,28.30
2018-06-01T16:33:41.254Z,28.29
2018-06-01T16:36:07.047Z,28.17
2018-06-01T16:38:32.855Z,28.23
2018-06-01T16:40:58.674Z,28.00
2018-06-01T16:43:24.486Z,27.96
2018-06-01T16:45:50.294Z,27.96
2018-06-01T16:48:16.102Z,27.78
2018-06-01T16:50:41.884Z,27.67
2018-06-01T16:53:07.666Z,27.67
2018-06-01T16:55:33.506Z,27.52
2018-06-01T16:57:59.301Z,27.48
2018-06-01T17:00:25.106Z,27.45
2018-06-01T17:02:51.035Z,27.39
2018-06-01T17:05:16.847Z,27.18
2018-06-01T17:07:42.660Z,27.15
2018-06-01T17:10:08.459Z,27.04
2018-06-01T17:12:34.266Z,27.11
2018-06-01T17:15:00.065Z,27.04
2018-06-01T17:17:25.885Z,26.94
2018-06-01T17:19:51.663Z,26.65
2018-06-01T17:22:17.474Z,26.53
2018-06-01T17:24:43.300Z,26.64
2018-06-01T17:27:09.108Z,26.64
2018-06-01T17:29:34.906Z,26.62
2018-06-01T17:32:00.807Z,26.57
2018-06-01T17:34:26.602Z,26.43
2018-06-01T17:36:52.397Z,26.28
2018-06-01T17:39:18.555Z,26.26
2018-06-01T17:41:44.382Z,26.14
2018-06-01T17:44:10.218Z,26.05
2018-06-01T17:46:36.218Z,26.06
2018-06-01T17:49:02.022Z,26.16
2018-06-01T17:51:27.842Z,25.99
2018-06-01T17:53:53.647Z,26.06
2018-06-01T17:56:19.439Z,25.94
2018-06-01T17:58:45.240Z,25.70
2018-06-01T18:01:11.054Z,25.59
2018-06-01T18:03:37.650Z,25.74
2018-06-01T18:06:03.457Z,25.74
2018-06-01T18:08:29.606Z,25.67
2018-06-01T18:10:55.415Z,25.67
2018-06-01T18:13:21.241Z,25.55
2018-06-01T18:15:47.174Z,25.52
2018-06-01T18:18:12.969Z,25.48
2018-06-01T18:20:38.749Z,25.54
2018-06-01T18:23:04.685Z,25.37
2018-06-01T18:25:30.486Z,25.29
2018-06-01T18:27:56.274Z,25.19
2018-06-01T18:30:22.087Z,25.06
2018-06-01T18:32:47.891Z,25.02
2018-06-01T18:35:14.380Z,25.01
2018-06-01T18:37:40.553Z,25.02
2018-06-01T18:40:06.384Z,25.08
2018-06-01T18:42:32.701Z,25.00
2018-06-01T18:44:58.530Z,24.87
2018-06-01T18:47:24.339Z,25.00
2018-06-01T18:49:50.142Z,24.93
2018-06-01T18:52:15.974Z,24.92
2018-06-01T18:54:41.778Z,24.73
2018-06-01T18:57:07.582Z,24.78
2018-06-01T18:59:33.761Z,24.79
2018-06-01T19:01:59.585Z,24.71
2018-06-01T19:04:26.367Z,24.59
2018-06-01T19:06:52.167Z,24.52
2018-06-01T19:09:17.965Z,24.38
2018-06-01T19:11:44.160Z,24.32
2018-06-01T19:14:09.989Z,24.27
2018-06-01T19:16:35.777Z,24.25
2018-06-01T19:19:01.775Z,24.26
2018-06-01T19:21:27.615Z,24.17
2018-06-01T19:23:53.936Z,24.15
2018-06-01T19:26:19.904Z,24.11
2018-06-01T19:28:45.741Z,24.09
2018-06-01T19:31:11.521Z,24.10
2018-06-01T19:33:37.313Z,24.04
2018-06-01T19:36:03.157Z,23.90
2018-06-01T19:38:28.942Z,23.80
2018-06-01T19:40:54.743Z,23.55
2018-06-01T19:43:20.554Z,23.15
2018-06-01T19:45:46.639Z,22.99
2018-06-01T19:48:12.491Z,22.82
2018-06-01T19:50:38.306Z,22.54
2018-06-01T19:53:04.121Z,22.45
2018-06-01T19:55:29.917Z,22.54
2018-06-01T19:57:55.747Z,22.62
2018-06-01T20:00:22.955Z,22.61
2018-06-01T20:02:55.821Z,22.57
2018-06-01T20:05:22.578Z,22.48
2018-06-01T20:07:48.467Z,22.49
2018-06-01T20:10:14.287Z,22.40
2018-06-01T20:12:40.102Z,22.36
2018-06-01T20:15:05.971Z,22.41
2018-06-01T20:17:31.931Z,22.31
2018-06-01T20:19:57.856Z,22.24
2018-06-01T20:22:23.666Z,22.35
2018-06-01T20:24:49.471Z,22.38
2018-06-01T20:27:15.294Z,22.29
2018-06-01T20:29:41.080Z,22.27
2018-06-01T20:32:07.529Z,22.37
2018-06-01T20:34:33.349Z,22.39
2018-06-01T20:36:59.403Z,22.26
2018-06-01T20:39:26.170Z,22.35
2018-06-01T20:41:51.970Z,22.42
2018-06-01T20:44:18.255Z,22.40
2018-06-01T20:46:44.381Z,22.45
2018-06-01T20:49:10.273Z,22.38
2018-06-01T20:51:36.074Z,22.45
2018-06-01T20:54:01.899Z,22.43
2018-06-01T20:56:27.718Z,22.37
2018-06-01T20:58:53.505Z,22.28
2018-06-01T21:01:19.307Z,22.21
2018-06-01T21:03:45.160Z,22.24
2018-06-01T21:06:10.954Z,22.28
2018-06-01T21:08:36.746Z,22.31
2018-06-01T21:11:02.565Z,22.32
2018-06-01T21:13:28.357Z,22.14
2018-06-01T21:15:54.151Z,22.04
2018-06-01T21:18:20.170Z,22.15
2018-06-01T21:20:45.990Z,22.31
2018-06-01T21:25:49.683Z,22.24
2018-06-01T21:28:15.481Z,22.28
2018-06-01T21:30:41.301Z,22.23
2018-06-01T21:33:07.100Z,22.27
2018-06-01T21:35:32.891Z,22.15
2018-06-01T21:37:58.700Z,22.15
2018-06-01T21:40:24.485Z,22.21
2018-06-01T21:42:50.288Z,22.02
2018-06-01T21:45:16.093Z,22.01
2018-06-01T21:47:41.869Z,22.03
2018-06-01T21:50:07.665Z,21.95
2018-06-01T21:52:33.465Z,21.90
2018-06-01T21:54:59.262Z,22.00
2018-06-01T21:57:25.046Z,22.13
2018-06-01T21:59:50.834Z,22.13
2018-06-01T22:02:16.637Z,22.03
2018-06-01T22:04:42.444Z,21.93
2018-06-01T22:07:08.233Z,21.88
2018-06-01T22:09:34.045Z,21.86
2018-06-01T22:11:59.839Z,21.91
2018-06-01T22:14:25.691Z,21.95
2018-06-01T22:16:51.482Z,21.92
2018-06-01T22:19:17.258Z,22.00
2018-06-01T22:21:43.081Z,21.93
2018-06-01T22:24:08.890Z,21.92
2018-06-01T22:26:34.693Z,21.99
2018-06-01T22:29:00.506Z,21.98
2018-06-01T22:31:26.312Z,21.88
2018-06-01T22:33:52.109Z,21.88
2018-06-01T22:36:17.910Z,21.87
2018-06-01T22:38:43.709Z,21.84
2018-06-01T22:41:09.865Z,21.84
2018-06-01T22:43:35.650Z,21.84
2018-06-01T22:46:01.434Z,21.76
2018-06-01T22:48:27.234Z,21.67
2018-06-01T22:50:53.061Z,21.66
2018-06-01T22:53:18.837Z,21.65
2018-06-01T22:55:44.675Z,21.56
2018-06-01T22:58:10.518Z,21.45
2018-06-01T23:00:40.236Z,21.46
2018-06-01T23:03:06.035Z,21.44
2018-06-01T23:05:31.939Z,21.45
2018-06-01T23:07:57.730Z,21.32
2018-06-01T23:10:23.613Z,21.32
2018-06-01T23:12:49.531Z,21.24
2018-06-01T23:15:15.318Z,21.19
2018-06-01T23:17:41.094Z,21.24
2018-06-01T23:20:06.899Z,21.18
2018-06-01T23:22:32.700Z,21.24
2018-06-01T23:24:58.502Z,21.19
2018-06-01T23:27:24.318Z,21.28
2018-06-01T23:29:50.134Z,21.39
2018-06-01T23:32:15.953Z,21.23
2018-06-01T23:34:41.755Z,21.06
2018-06-01T23:37:07.545Z,20.94
2018-06-01T23:39:33.357Z,21.01
2018-06-01T23:41:59.155Z,20.89
2018-06-01T23:44:24.946Z,20.92
2018-06-01T23:46:50.752Z,20.85
2018-06-01T23:49:16.573Z,20.90
2018-06-01T23:51:42.352Z,20.92
2018-06-01T23:54:08.137Z,20.93
2018-06-01T23:56:33.947Z,20.80
2018-06-01T23:58:59.731Z,20.92
